Time;durP1;ratioP1;P1;durP2;ratioP2;P2;SDS_P1;SDS_P2;PMS_P1;PMS_P2;Temp;Humidity;BMP_temperature;BMP_pressure;BME280_temperature;BME280_humidity;BME280_pressure;Samples;Min_cycle;Max_cycle;Signal;HPM_P1;HPM_P2
2022/02/24 00:01:42;;;;;;;8.25;2.80;;;;;;;4.75;73.12;99116.97;4818124;29;20026;-74
2022/02/24 00:04:07;;;;;;;14.27;3.67;;;;;;;4.71;72.89;99102.53;4819346;29;20453;-76
2022/02/24 00:06:32;;;;;;;11.82;3.33;;;;;;;4.74;73.11;99108.22;4822082;29;20114;-75
2022/02/24 00:08:58;;;;;;;5.60;3.05;;;;;;;4.73;72.96;99097.84;4823621;29;20136;-75
2022/02/24 00:11:23;;;;;;;8.95;3.80;;;;;;;4.71;73.30;99086.69;4822671;29;20047;-77
2022/02/24 00:13:48;;;;;;;10.98;2.88;;;;;;;4.74;73.23;99088.94;4817765;29;20086;-75
2022/02/24 00:16:14;;;;;;;9.63;3.20;;;;;;;4.68;73.26;99077.31;4821142;29;20065;-76
2022/02/24 00:18:39;;;;;;;8.70;3.45;;;;;;;4.75;72.94;99079.97;4825764;29;20026;-76
2022/02/24 00:21:04;;;;;;;6.07;2.78;;;;;;;4.71;72.70;99071.63;4822732;29;20058;-75
2022/02/24 00:23:29;;;;;;;14.45;3.13;;;;;;;4.75;73.01;99079.97;4818120;29;20477;-76
2022/02/24 00:25:55;;;;;;;4.28;3.08;;;;;;;4.74;73.32;99081.78;4822933;29;20519;-77
2022/02/24 00:28:20;;;;;;;8.05;2.83;;;;;;;4.75;73.12;99079.97;4819771;29;20041;-73
2022/02/24 00:30:45;;;;;;;8.63;3.22;;;;;;;4.72;73.48;99061.88;4820357;29;20030;-75
2022/02/24 00:33:10;;;;;;;12.15;3.17;;;;;;;4.76;73.22;99069.16;4824479;29;20049;-75
2022/02/24 00:35:36;;;;;;;7.10;2.78;;;;;;;4.78;72.96;99066.34;4823004;29;20042;-74
2022/02/24 00:38:01;;;;;;;7.45;3.00;;;;;;;4.78;73.44;99061.88;4823668;29;20472;-75
2022/02/24 00:40:27;;;;;;;13.77;3.60;;;;;;;4.78;73.52;99063.69;4819862;29;20042;-75
2022/02/24 00:42:52;;;;;;;13.65;3.22;;;;;;;4.81;73.03;99055.34;4819649;29;20406;-74
2022/02/24 00:45:17;;;;;;;6.78;3.08;;;;;;;4.81;73.24;99058.78;4819337;29;20062;-74
2022/02/24 00:47:43;;;;;;;9.60;3.33;;;;;;;4.82;73.80;99051.69;4821001;29;20031;-74
2022/02/24 00:50:09;;;;;;;7.15;3.22;;;;;;;4.83;73.79;99051.47;4829411;29;20081;-75
2022/02/24 00:52:35;;;;;;;9.65;3.63;;;;;;;4.83;73.07;99037.44;4817422;29;20031;-72
2022/02/24 00:55:00;;;;;;;6.30;2.75;;;;;;;4.83;73.82;99042.72;4819741;29;20087;-72
2022/02/24 00:57:25;;;;;;;6.18;3.00;;;;;;;4.88;74.32;99040.28;4816080;29;20066;-72
2022/02/24 00:59:51;;;;;;;5.47;3.08;;;;;;;4.88;73.85;99037.63;4825469;29;20552;-72
2022/02/24 01:02:17;;;;;;;6.15;2.42;;;;;;;4.86;73.94;99029.09;4823212;29;20034;-72
2022/02/24 01:04:42;;;;;;;10.75;3.08;;;;;;;4.91;73.41;99032.75;4826110;29;20373;-73
2022/02/24 01:07:08;;;;;;;4.70;2.80;;;;;;;4.95;73.96;99033.13;4820046;29;20042;-73
2022/02/24 01:09:33;;;;;;;6.05;2.72;;;;;;;4.94;73.52;99027.03;4822193;29;20524;-73
2022/02/24 01:11:58;;;;;;;7.03;3.13;;;;;;;4.96;73.52;99022.34;4823875;29;20034;-74
2022/02/24 01:14:24;;;;;;;3.28;2.33;;;;;;;4.98;73.95;99024.81;4817738;29;20046;-73
2022/02/24 01:16:49;;;;;;;9.10;3.05;;;;;;;4.95;73.62;99001.41;4819291;29;20070;-74
2022/02/24 01:19:14;;;;;;;9.38;2.97;;;;;;;5.01;73.92;99013.78;4820284;29;20042;-72
2022/02/24 01:21:40;;;;;;;6.43;2.78;;;;;;;5.01;74.02;99005.84;4826228;29;20146;-73
2022/02/24 01:24:05;;;;;;;6.63;3.72;;;;;;;4.99;74.38;98994.66;4825328;29;20038;-75
2022/02/24 01:26:31;;;;;;;5.85;2.63;;;;;;;5.02;74.08;98981.84;4823258;29;20057;-75
2022/02/24 01:28:56;;;;;;;4.32;2.78;;;;;;;5.04;73.95;98982.47;4821280;29;20042;-76
2022/02/24 01:31:21;;;;;;;9.63;2.55;;;;;;;5.03;73.96;98975.53;4817365;29;20066;-75
2022/02/24 01:33:47;;;;;;;10.43;3.42;;;;;;;5.06;73.95;98974.31;4826479;29;20034;-76
2022/02/24 01:36:12;;;;;;;5.15;2.38;;;;;;;5.06;74.48;98966.38;4820457;29;20070;-75
2022/02/24 01:38:38;;;;;;;4.50;2.47;;;;;;;5.10;74.37;98962.28;4821256;29;20122;-75
2022/02/24 01:41:03;;;;;;;9.50;3.00;;;;;;;5.09;74.00;98948.22;4819666;29;20043;-76
2022/02/24 01:43:29;;;;;;;14.68;4.97;;;;;;;5.12;74.40;98939.06;4829060;29;20054;-75
2022/02/24 01:45:54;;;;;;;6.50;2.80;;;;;;;5.09;74.60;98929.72;4824366;29;20042;-77
2022/02/24 01:48:19;;;;;;;10.63;2.70;;;;;;;5.09;73.76;98920.97;4821216;29;20505;-75
2022/02/24 01:50:45;;;;;;;3.88;2.50;;;;;;;5.10;74.23;98917.31;4824143;29;20034;-75
2022/02/24 01:53:10;;;;;;;10.23;2.78;;;;;;;5.15;74.03;98913.03;4822991;29;20051;-76
2022/02/24 01:55:38;;;;;;;5.20;2.53;;;;;;;5.15;74.43;98905.09;4822409;29;20038;-76
2022/02/24 01:58:04;;;;;;;6.40;2.80;;;;;;;5.17;74.53;98902.22;4821591;29;20030;-76
2022/02/24 02:00:29;;;;;;;14.18;3.22;;;;;;;5.17;74.44;98903.03;4824080;29;20034;-75
2022/02/24 02:02:54;;;;;;;9.18;2.80;;;;;;;5.18;74.56;98899.34;4821438;29;20030;-76
2022/02/24 02:05:20;;;;;;;10.02;3.13;;;;;;;5.18;74.57;98893.25;4817798;29;21422;-75
2022/02/24 02:07:45;;;;;;;4.85;2.80;;;;;;;5.17;74.09;98886.34;4828900;29;20043;-74
2022/02/24 02:10:10;;;;;;;5.75;2.88;;;;;;;5.16;74.36;98880.22;4820924;29;20049;-76
2022/02/24 02:12:51;;;;;;;8.20;3.25;;;;;;;5.08;74.83;98877.03;4825278;29;20559;-77
2022/02/24 02:15:17;;;;;;;5.68;2.35;;;;;;;5.12;74.57;98878.22;4820803;29;20114;-76
2022/02/24 02:17:43;;;;;;;6.95;2.75;;;;;;;5.13;74.57;98874.56;4820356;29;20446;-76
2022/02/24 02:20:09;;;;;;;8.77;3.25;;;;;;;5.17;74.46;98875.75;4815808;29;20070;-77
2022/02/24 02:22:34;;;;;;;4.72;3.17;;;;;;;5.17;74.32;98866.00;4818212;29;20504;-75
2022/02/24 02:25:03;;;;;;;5.75;2.47;;;;;;;5.14;74.80;98855.00;4826618;29;20068;-76
2022/02/24 02:27:29;;;;;;;10.90;2.97;;;;;;;5.13;74.31;98850.75;4820779;29;20098;-77
2022/02/24 02:29:54;;;;;;;7.55;2.75;;;;;;;5.19;74.71;98852.53;4824424;29;20026;-77
2022/02/24 02:32:22;;;;;;;5.85;3.55;;;;;;;5.20;74.07;98844.38;4822742;29;20500;-75
2022/02/24 02:34:48;;;;;;;6.57;2.83;;;;;;;5.21;74.86;98847.84;4829168;29;20049;-75
2022/02/24 02:37:13;;;;;;;8.93;3.10;;;;;;;5.22;74.76;98846.84;4827188;29;20039;-76
2022/02/24 02:39:38;;;;;;;6.60;3.10;;;;;;;5.23;74.88;98846.63;4821680;29;20031;-75
2022/02/24 02:42:04;;;;;;;9.30;2.80;;;;;;;5.20;75.44;98832.97;4823985;29;20035;-75
2022/02/24 02:44:29;;;;;;;4.30;2.00;;;;;;;5.22;74.27;98833.59;4820694;29;20102;-75
2022/02/24 02:46:54;;;;;;;10.13;3.03;;;;;;;5.16;74.42;98819.38;4820594;29;20044;-75
2022/02/24 02:49:20;;;;;;;5.75;2.80;;;;;;;5.25;74.49;98825.22;4818888;29;21964;-74
2022/02/24 02:51:45;;;;;;;6.82;2.58;;;;;;;5.18;74.74;98814.69;4820509;29;20095;-78
2022/02/24 02:54:10;;;;;;;5.32;2.65;;;;;;;5.20;74.42;98796.75;4820897;29;20495;-77
2022/02/24 02:56:36;;;;;;;3.50;2.50;;;;;;;5.22;74.58;98809.78;4818358;29;20058;-75
2022/02/24 02:59:01;;;;;;;6.43;2.80;;;;;;;5.28;74.38;98803.63;4820363;29;20034;-76
2022/02/24 03:01:27;;;;;;;9.32;3.17;;;;;;;5.28;74.89;98803.63;4815186;29;20134;-75
2022/02/24 03:03:52;;;;;;;11.55;3.80;;;;;;;5.29;75.20;98799.94;4820329;29;20077;-76
2022/02/24 03:06:17;;;;;;;5.50;2.92;;;;;;;5.29;75.11;98805.25;4821697;29;20050;-77
2022/02/24 03:08:44;;;;;;;4.85;3.33;;;;;;;5.31;74.69;98798.72;4822140;29;20053;-75
2022/02/24 03:11:09;;;;;;;9.20;3.10;;;;;;;5.31;75.29;98793.41;4821125;29;20504;-75
2022/02/24 03:13:35;;;;;;;7.07;3.70;;;;;;;5.32;75.26;98794.25;4817101;29;20069;-74
2022/02/24 03:16:01;;;;;;;5.05;2.67;;;;;;;5.33;74.61;98790.56;4818372;29;20131;-76
2022/02/24 03:18:26;;;;;;;5.85;2.80;;;;;;;5.33;74.54;98786.06;4818040;29;20123;-75
2022/02/24 03:20:51;;;;;;;5.93;2.75;;;;;;;5.33;75.13;98788.72;4819166;29;20049;-75
2022/02/24 03:23:16;;;;;;;5.82;3.08;;;;;;;5.33;75.03;98779.97;4817807;29;20099;-75
2022/02/24 03:25:42;;;;;;;4.57;2.90;;;;;;;5.31;75.14;98777.53;4816976;29;20034;-75
2022/02/24 03:28:07;;;;;;;6.82;2.70;;;;;;;5.27;75.06;98770.25;4818156;29;20038;-75
2022/02/24 03:30:34;;;;;;;5.75;2.85;;;;;;;5.26;74.65;98773.94;4816735;29;20046;-75
2022/02/24 03:33:04;;;;;;;3.80;2.45;;;;;;;5.27;74.79;98772.91;4819243;29;20096;-75
2022/02/24 03:35:30;;;;;;;8.77;2.60;;;;;;;5.32;75.20;98781.81;4818781;29;20042;-74
2022/02/24 03:37:55;;;;;;;5.93;2.95;;;;;;;5.32;74.87;98770.44;4817199;29;20056;-75
2022/02/24 03:40:21;;;;;;;7.78;2.80;;;;;;;5.32;75.15;98767.78;4819730;29;20034;-74
2022/02/24 03:42:48;;;;;;;6.65;2.30;;;;;;;5.35;74.85;98771.84;4820245;29;20034;-73
2022/02/24 03:45:14;;;;;;;10.00;3.38;;;;;;;5.34;74.88;98771.00;4820887;29;20043;-74
2022/02/24 03:47:39;;;;;;;8.00;4.05;;;;;;;5.33;75.00;98772.84;4818701;29;20041;-74
2022/02/24 03:50:07;;;;;;;4.38;2.10;;;;;;;5.27;74.83;98762.31;4820263;29;20030;-74
2022/02/24 03:52:32;;;;;;;9.88;3.10;;;;;;;5.31;75.43;98769.59;4822452;29;20467;-74
2022/02/24 03:54:57;;;;;;;7.25;2.97;;;;;;;5.25;74.81;98748.50;4822172;29;20050;-74
2022/02/24 03:57:23;;;;;;;5.22;3.03;;;;;;;5.35;75.16;98759.41;4820792;29;20125;-74
2022/02/24 03:59:48;;;;;;;6.95;2.95;;;;;;;5.35;74.84;98746.19;4821912;29;20067;-74
2022/02/24 04:02:14;;;;;;;4.65;2.28;;;;;;;5.30;75.37;98748.66;4822299;29;20034;-76
2022/02/24 04:04:39;;;;;;;6.82;2.70;;;;;;;5.33;75.05;98754.31;4817300;29;20061;-74
2022/02/24 04:07:05;;;;;;;5.18;2.83;;;;;;;5.36;75.07;98750.44;4818665;29;20042;-76
2022/02/24 04:09:31;;;;;;;7.22;3.08;;;;;;;5.36;74.84;98750.44;4817595;29;20052;-74
2022/02/24 04:11:57;;;;;;;7.13;2.75;;;;;;;5.35;75.47;98734.78;4819652;29;20496;-74
2022/02/24 04:14:23;;;;;;;4.53;2.40;;;;;;;5.33;74.95;98727.84;4824183;29;20073;-73
2022/02/24 04:16:49;;;;;;;5.07;2.60;;;;;;;5.37;75.22;98733.53;4821775;29;20209;-74
2022/02/24 04:19:14;;;;;;;4.95;2.70;;;;;;;5.38;74.97;98732.50;4827343;29;20072;-74
2022/02/24 04:21:40;;;;;;;12.20;2.92;;;;;;;5.41;75.29;98737.38;4823131;29;20041;-73
2022/02/24 04:24:06;;;;;;;9.10;2.80;;;;;;;5.40;74.89;98738.38;4816700;29;20062;-73
2022/02/24 04:26:32;;;;;;;5.53;3.00;;;;;;;5.41;75.58;98737.38;4819956;29;20030;-74
2022/02/24 04:28:57;;;;;;;6.30;2.50;;;;;;;5.36;75.14;98721.31;4817422;29;20752;-74
2022/02/24 04:31:23;;;;;;;5.40;2.88;;;;;;;5.45;74.65;98721.84;4817020;29;20049;-72
2022/02/24 04:33:49;;;;;;;6.53;3.20;;;;;;;5.46;75.30;98721.63;4822088;29;20450;-73
2022/02/24 04:36:14;;;;;;;7.45;3.03;;;;;;;5.47;74.84;98727.72;4816343;29;20039;-73
2022/02/24 04:38:40;;;;;;;6.70;2.88;;;;;;;5.47;75.24;98725.09;4819232;29;20392;-72
2022/02/24 04:41:06;;;;;;;4.90;3.28;;;;;;;5.44;74.66;98715.75;4821487;29;20066;-73
2022/02/24 04:43:31;;;;;;;8.32;3.70;;;;;;;5.46;75.06;98716.34;4823594;29;20045;-73
2022/02/24 04:45:56;;;;;;;7.50;3.08;;;;;;;5.50;75.01;98714.06;4818403;29;20034;-72
2022/02/24 04:48:23;;;;;;;7.25;3.58;;;;;;;5.51;75.28;98708.56;4819740;29;20509;-75
2022/02/24 04:50:48;;;;;;;9.65;3.35;;;;;;;5.50;75.00;98696.38;4821758;29;20045;-72
2022/02/24 04:53:14;;;;;;;5.50;3.65;;;;;;;5.54;75.25;98696.72;4821827;29;20038;-72
2022/02/24 04:55:39;;;;;;;7.15;2.97;;;;;;;5.54;75.24;98686.13;4823217;29;20094;-72
2022/02/24 04:58:04;;;;;;;9.23;3.58;;;;;;;5.55;74.66;98696.50;4822413;29;20038;-72
2022/02/24 05:00:30;;;;;;;8.95;3.22;;;;;;;5.56;74.88;98690.19;4819829;29;20687;-72
2022/02/24 05:02:55;;;;;;;7.45;3.40;;;;;;;5.57;74.94;98689.13;4822932;29;20063;-73
2022/02/24 05:05:20;;;;;;;5.35;2.88;;;;;;;5.51;74.76;98675.97;4806772;29;20069;-72
2022/02/24 05:07:46;;;;;;;4.97;3.92;;;;;;;5.57;74.79;98677.75;4824402;29;20059;-73
2022/02/24 05:10:11;;;;;;;8.43;3.70;;;;;;;5.61;75.27;98676.28;4822587;29;20507;-72
2022/02/24 05:12:36;;;;;;;6.20;2.70;;;;;;;5.54;74.78;98665.78;4826328;29;20041;-73
2022/02/24 05:15:02;;;;;;;6.68;3.15;;;;;;;5.62;74.68;98673.41;4819916;29;20026;-72
2022/02/24 05:17:28;;;;;;;13.57;3.45;;;;;;;5.64;74.86;98673.19;4824358;29;20437;-73
2022/02/24 05:19:53;;;;;;;6.68;3.40;;;;;;;5.64;75.17;98675.81;4827968;29;20038;-73
2022/02/24 05:22:19;;;;;;;8.93;3.10;;;;;;;5.63;74.39;98666.28;4826314;29;20058;-72
2022/02/24 05:24:44;;;;;;;10.02;2.88;;;;;;;5.67;75.23;98665.63;4824672;29;20559;-72
2022/02/24 05:27:09;;;;;;;9.52;2.90;;;;;;;5.61;74.17;98655.94;4822272;29;20042;-72
2022/02/24 05:29:34;;;;;;;6.10;2.75;;;;;;;5.63;74.71;98661.00;4822710;29;20034;-71
2022/02/24 05:32:00;;;;;;;7.18;3.30;;;;;;;5.69;75.13;98671.50;4824979;29;20400;-73
2022/02/24 05:34:26;;;;;;;5.97;2.90;;;;;;;5.70;74.65;98662.50;4828129;29;20493;-71
2022/02/24 05:36:51;;;;;;;7.93;3.13;;;;;;;5.72;75.12;98657.81;4828317;29;20093;-71
2022/02/24 05:39:17;;;;;;;9.85;3.83;;;;;;;5.73;75.26;98655.97;4827431;29;20118;-74
2022/02/24 05:41:42;;;;;;;4.43;2.72;;;;;;;5.71;74.75;98648.25;4821060;29;20038;-74
2022/02/24 05:44:07;;;;;;;6.75;2.78;;;;;;;5.75;75.00;98644.13;4821354;29;20053;-74
2022/02/24 05:46:33;;;;;;;12.90;3.25;;;;;;;5.67;74.50;98633.03;4819881;29;20133;-73
2022/02/24 05:48:59;;;;;;;6.28;3.08;;;;;;;5.75;74.96;98636.19;4823661;29;20046;-73
2022/02/24 05:51:24;;;;;;;8.88;4.07;;;;;;;5.74;74.77;98639.06;4822597;29;20031;-74
2022/02/24 05:53:50;;;;;;;8.10;2.78;;;;;;;5.76;74.39;98634.34;4821982;29;20040;-72
2022/02/24 05:56:15;;;;;;;7.80;2.63;;;;;;;5.78;74.88;98633.09;4825231;29;20103;-75
2022/02/24 05:58:42;;;;;;;5.40;2.55;;;;;;;5.79;74.41;98632.06;4821749;29;20106;-73
2022/02/24 06:01:09;;;;;;;7.47;3.00;;;;;;;5.82;74.41;98625.50;4820902;29;20058;-72
2022/02/24 06:03:34;;;;;;;9.73;3.80;;;;;;;5.81;74.64;98630.00;4824302;29;20065;-73
2022/02/24 06:06:00;;;;;;;2.97;2.25;;;;;;;5.75;75.29;98617.66;4824169;29;20885;-73
2022/02/24 06:08:25;;;;;;;2.78;2.42;;;;;;;5.82;74.43;98621.03;4821153;29;20034;-74
2022/02/24 06:10:51;;;;;;;7.32;2.50;;;;;;;5.81;74.43;98624.69;4817570;29;20034;-73
2022/02/24 06:13:16;;;;;;;5.47;2.70;;;;;;;5.78;74.51;98624.34;4820080;29;20493;-76
2022/02/24 06:15:41;;;;;;;10.07;2.80;;;;;;;5.82;74.78;98621.03;4820260;29;20464;-73
2022/02/24 06:18:07;;;;;;;9.35;3.03;;;;;;;5.77;74.34;98610.28;4821088;29;20027;-71
2022/02/24 06:20:33;;;;;;;5.63;2.83;;;;;;;5.83;74.53;98621.84;4821239;29;20026;-72
2022/02/24 06:22:58;;;;;;;11.35;3.38;;;;;;;5.82;74.01;98621.03;4827744;29;20058;-73
2022/02/24 06:25:26;;;;;;;8.07;3.72;;;;;;;5.82;73.65;98621.03;4822722;29;20040;-72
2022/02/24 06:27:51;;;;;;;8.35;2.60;;;;;;;5.84;73.67;98618.19;4818677;29;20038;-74
2022/02/24 06:30:17;;;;;;;9.48;3.28;;;;;;;5.84;73.38;98607.59;4821009;29;20561;-73
2022/02/24 06:32:43;;;;;;;6.70;3.63;;;;;;;5.87;73.73;98612.44;4821565;29;20463;-74
2022/02/24 06:35:10;;;;;;;7.82;2.70;;;;;;;5.88;72.88;98608.75;4820217;29;20043;-73
2022/02/24 06:37:38;;;;;;;6.47;3.20;;;;;;;5.89;73.74;98597.16;4819621;29;20038;-73
2022/02/24 06:40:04;;;;;;;7.35;2.70;;;;;;;5.86;73.98;98592.28;4827270;29;20037;-73
2022/02/24 06:42:30;;;;;;;10.68;3.40;;;;;;;5.86;73.09;98595.75;4826645;29;20034;-74
2022/02/24 06:44:55;;;;;;;6.35;2.85;;;;;;;5.91;73.57;98593.25;4822347;29;20034;-72
2022/02/24 06:47:20;;;;;;;6.75;2.72;;;;;;;5.92;73.51;98589.53;4824854;29;20117;-73
2022/02/24 06:49:45;;;;;;;5.15;2.97;;;;;;;5.92;72.80;98586.91;4822311;29;20086;-71
2022/02/24 06:52:11;;;;;;;13.45;2.92;;;;;;;5.91;72.96;98584.47;4826364;29;20057;-72
2022/02/24 06:54:36;;;;;;;9.75;3.45;;;;;;;5.87;73.43;98592.09;4821323;29;20046;-73
2022/02/24 06:57:06;;;;;;;11.50;3.35;;;;;;;5.81;71.94;98577.03;4827220;29;20030;-73
2022/02/24 06:59:32;;;;;;;15.38;3.30;;;;;;;5.85;72.81;98580.88;4821490;29;20040;-74
2022/02/24 07:01:57;;;;;;;4.05;2.60;;;;;;;5.91;71.87;98577.34;4822827;29;20577;-73
2022/02/24 07:04:22;;;;;;;10.52;2.97;;;;;;;5.91;72.62;98580.00;4825014;29;20137;-74
2022/02/24 07:06:48;;;;;;;10.43;3.80;;;;;;;5.99;72.31;98570.91;4826080;29;20052;-75
2022/02/24 07:09:14;;;;;;;13.60;4.40;;;;;;;6.12;72.92;98570.72;4827779;29;20089;-73
2022/02/24 07:11:39;;;;;;;9.93;4.07;;;;;;;6.18;73.14;98566.38;4823744;29;20042;-74
2022/02/24 07:14:04;;;;;;;18.92;4.85;;;;;;;6.24;73.52;98565.47;4819461;29;20031;-74
2022/02/24 07:16:32;;;;;;;19.70;5.32;;;;;;;6.26;73.28;98569.50;4825176;29;20610;-74
2022/02/24 07:18:57;;;;;;;17.92;5.00;;;;;;;6.31;73.46;98572.25;4818429;29;20042;-74
2022/02/24 07:21:22;;;;;;;18.00;4.90;;;;;;;6.33;73.25;98569.41;4823822;29;20082;-74
2022/02/24 07:23:48;;;;;;;21.33;5.63;;;;;;;6.33;72.99;98562.25;4825936;29;20465;-74
2022/02/24 07:26:13;;;;;;;19.05;4.53;;;;;;;6.35;73.11;98551.41;4823102;29;20125;-72
2022/02/24 07:28:38;;;;;;;31.70;6.20;;;;;;;6.36;73.02;98551.19;4819672;29;20059;-74
2022/02/24 07:31:04;;;;;;;15.73;5.63;;;;;;;6.36;73.29;98550.38;4827217;29;20424;-74
2022/02/24 07:33:29;;;;;;;17.58;6.75;;;;;;;6.39;72.93;98556.03;4804994;29;20103;-73
2022/02/24 07:35:55;;;;;;;30.77;6.13;;;;;;;6.40;73.11;98538.31;4822320;29;20400;-74
2022/02/24 07:38:20;;;;;;;17.92;4.97;;;;;;;6.41;73.13;98538.06;4825277;29;20050;-74
2022/02/24 07:40:45;;;;;;;26.52;6.45;;;;;;;6.42;73.33;98531.72;4820295;29;20082;-75
2022/02/24 07:43:11;;;;;;;24.08;5.50;;;;;;;6.41;73.36;98518.69;4819639;29;21214;-75
2022/02/24 07:45:36;;;;;;;20.25;5.13;;;;;;;6.46;72.90;98532.88;4812208;29;20034;-73
2022/02/24 07:48:01;;;;;;;16.73;5.72;;;;;;;6.48;72.79;98533.47;4826233;29;20037;-75
2022/02/24 07:50:27;;;;;;;23.73;5.28;;;;;;;6.46;73.54;98522.28;4821982;29;20034;-74
2022/02/24 07:52:52;;;;;;;18.77;4.93;;;;;;;6.49;72.41;98519.16;4825078;29;20058;-74
2022/02/24 07:55:19;;;;;;;20.20;5.70;;;;;;;6.53;73.25;98522.16;4827371;29;20045;-74
2022/02/24 07:57:45;;;;;;;30.80;5.85;;;;;;;6.57;72.96;98528.63;4822209;29;20129;-74
2022/02/24 08:00:15;;;;;;;20.08;5.55;;;;;;;6.57;73.00;98525.97;4814737;29;20125;-74
2022/02/24 08:02:42;;;;;;;27.00;5.05;;;;;;;6.58;72.91;98519.63;4821454;29;20098;-73
2022/02/24 08:05:08;;;;;;;35.47;7.10;;;;;;;6.54;73.12;98505.22;4821187;29;20038;-73
2022/02/24 08:07:34;;;;;;;24.33;6.25;;;;;;;6.65;73.38;98520.31;4822464;29;20110;-73
2022/02/24 08:09:59;;;;;;;23.05;5.30;;;;;;;6.65;73.47;98521.13;4830059;29;20481;-73
2022/02/24 08:12:39;;;;;;;21.35;5.07;;;;;;;6.69;72.89;98527.56;4822406;29;20053;-75
2022/02/24 08:15:06;;;;;;;21.38;5.00;;;;;;;6.70;72.58;98518.59;4829101;29;20243;-75
2022/02/24 08:17:32;;;;;;;29.27;6.03;;;;;;;6.71;72.12;98512.25;4822301;29;20153;-74
2022/02/24 08:19:58;;;;;;;28.52;6.65;;;;;;;6.74;72.88;98508.31;4830547;29;20026;-75
2022/02/24 08:22:23;;;;;;;17.40;4.50;;;;;;;6.70;71.86;98501.88;4824190;29;20079;-74
2022/02/24 08:24:49;;;;;;;22.45;4.95;;;;;;;6.74;72.58;98503.84;4825134;29;20129;-74
2022/02/24 08:27:15;;;;;;;17.98;4.75;;;;;;;6.75;72.96;98504.63;4835595;29;20103;-74
2022/02/24 08:29:40;;;;;;;35.13;6.25;;;;;;;6.81;72.21;98511.66;4821999;29;20046;-75
2022/02/24 08:32:06;;;;;;;31.52;5.57;;;;;;;6.79;72.66;98488.00;4825875;29;20038;-75
2022/02/24 08:34:31;;;;;;;20.60;4.72;;;;;;;6.83;72.92;98488.38;4820125;29;20125;-74
2022/02/24 08:36:56;;;;;;;26.55;6.65;;;;;;;6.82;72.40;98484.09;4800825;29;20504;-74
2022/02/24 08:39:23;;;;;;;20.15;5.93;;;;;;;6.84;72.77;98483.88;4820197;29;20107;-74
2022/02/24 08:41:49;;;;;;;29.05;5.82;;;;;;;6.91;72.79;98487.19;4817098;29;20392;-74
2022/02/24 08:44:14;;;;;;;21.20;4.68;;;;;;;6.93;73.13;98479.78;4824727;29;20042;-74
2022/02/24 08:46:40;;;;;;;20.40;4.22;;;;;;;6.93;72.86;98479.78;4826826;29;20080;-75
2022/02/24 08:49:05;;;;;;;18.13;5.70;;;;;;;6.94;72.20;98481.44;4822889;29;20033;-75
2022/02/24 08:51:31;;;;;;;11.65;4.00;;;;;;;6.96;71.84;98474.84;4823606;29;20037;-75
2022/02/24 08:53:56;;;;;;;8.02;4.00;;;;;;;6.97;71.80;98481.75;4824276;29;20042;-75
2022/02/24 08:56:21;;;;;;;16.83;4.35;;;;;;;6.92;71.93;98463.09;4822529;29;20033;-74
2022/02/24 08:58:47;;;;;;;10.48;4.00;;;;;;;6.99;71.43;98477.00;4828510;29;20782;-73
2022/02/24 09:01:12;;;;;;;20.38;5.25;;;;;;;6.98;71.88;98467.47;4821711;29;20065;-74
2022/02/24 09:03:37;;;;;;;9.57;3.78;;;;;;;6.94;72.13;98461.00;4813657;29;20043;-75
2022/02/24 09:06:03;;;;;;;15.07;4.10;;;;;;;6.99;71.74;98474.38;4819389;29;20122;-75
2022/02/24 09:08:28;;;;;;;17.00;4.32;;;;;;;7.00;71.58;98470.69;4822940;29;20087;-74
2022/02/24 09:10:54;;;;;;;10.77;3.65;;;;;;;7.02;72.05;98463.28;4823894;29;20111;-74
2022/02/24 09:13:19;;;;;;;12.32;4.15;;;;;;;7.04;71.61;98463.03;4824569;29;20070;-74
2022/02/24 09:15:44;;;;;;;25.13;4.95;;;;;;;7.03;72.56;98448.19;4823776;29;20408;-74
2022/02/24 09:18:09;;;;;;;14.98;4.25;;;;;;;7.05;72.59;98454.06;4819694;29;20122;-74
2022/02/24 09:20:35;;;;;;;10.65;3.60;;;;;;;7.04;71.63;98439.97;4826221;29;20445;-75
2022/02/24 09:23:01;;;;;;;15.80;4.47;;;;;;;7.11;72.02;98419.44;4829931;29;20053;-74
2022/02/24 09:25:26;;;;;;;6.90;3.50;;;;;;;7.13;71.73;98413.88;4824894;29;20049;-74
2022/02/24 09:27:52;;;;;;;9.95;4.38;;;;;;;7.18;72.04;98419.28;4825017;29;20045;-75
2022/02/24 09:30:18;;;;;;;10.68;3.78;;;;;;;7.21;71.87;98409.00;4823443;29;20034;-74
2022/02/24 09:32:43;;;;;;;10.73;3.42;;;;;;;7.26;71.67;98410.94;4817670;29;20057;-75
2022/02/24 09:35:10;;;;;;;9.82;3.88;;;;;;;7.32;71.47;98415.28;4821451;29;20089;-74
2022/02/24 09:37:36;;;;;;;8.82;3.97;;;;;;;7.34;72.03;98402.56;4822261;29;20175;-75
2022/02/24 09:40:06;;;;;;;11.38;3.28;;;;;;;7.38;71.43;98393.91;4823175;29;20555;-75
2022/02/24 09:42:34;;;;;;;8.85;3.67;;;;;;;7.40;71.39;98393.69;4821931;29;20035;-75
2022/02/24 09:44:59;;;;;;;7.82;3.00;;;;;;;7.44;70.71;98382.34;4826654;29;20041;-75
2022/02/24 09:47:24;;;;;;;12.25;3.67;;;;;;;7.40;71.55;98373.22;4819705;29;20042;-75
2022/02/24 09:49:53;;;;;;;10.13;3.17;;;;;;;7.45;71.00;98364.53;4819299;29;20477;-75
2022/02/24 09:52:18;;;;;;;4.35;2.67;;;;;;;7.51;69.73;98371.56;4823018;29;20035;-75
2022/02/24 09:54:43;;;;;;;6.95;3.25;;;;;;;7.53;70.46;98361.50;4824252;29;20531;-74
2022/02/24 09:57:09;;;;;;;4.38;2.88;;;;;;;7.56;69.71;98358.34;4816760;29;20035;-76
2022/02/24 09:59:34;;;;;;;8.05;3.00;;;;;;;7.60;70.53;98350.75;4825213;29;20507;-75
2022/02/24 10:02:01;;;;;;;10.32;3.17;;;;;;;7.66;70.74;98342.59;4821226;29;20038;-75
2022/02/24 10:04:26;;;;;;;9.50;3.78;;;;;;;7.70;70.08;98338.41;4816735;29;20047;-75
2022/02/24 10:06:52;;;;;;;7.93;3.15;;;;;;;7.75;70.26;98338.50;4825665;29;20086;-74
2022/02/24 10:09:29;;;;;;;7.80;3.22;;;;;;;7.79;69.25;98328.19;4820179;29;20120;-75
2022/02/24 10:12:09;;;;;;;6.25;2.95;;;;;;;7.83;69.17;98324.00;4826329;29;20034;-75
2022/02/24 10:14:36;;;;;;;11.65;2.65;;;;;;;7.85;69.30;98313.91;4821597;29;20125;-75
2022/02/24 10:17:04;;;;;;;9.73;2.80;;;;;;;7.87;69.33;98309.97;4821539;29;20058;-74
2022/02/24 10:19:29;;;;;;;10.68;3.20;;;;;;;7.91;70.17;98302.31;4821519;29;20038;-74
2022/02/24 10:22:24;;;;;;;14.13;4.07;;;;;;;7.95;70.78;98290.94;4820636;29;20045;-75
2022/02/24 10:25:04;;;;;;;7.55;3.13;;;;;;;8.00;71.19;98285.72;4823540;29;20034;-75
2022/02/24 10:27:35;;;;;;;9.70;2.80;;;;;;;8.05;70.15;98269.84;4826047;29;20480;-74
2022/02/24 10:30:14;;;;;;;7.78;3.72;;;;;;;8.10;70.42;98277.88;4822657;29;20054;-74
2022/02/24 10:32:43;;;;;;;6.72;2.65;;;;;;;8.16;69.66;98268.13;4822397;29;20042;-75
2022/02/24 10:35:38;;;;;;;4.55;3.13;;;;;;;8.15;69.21;98259.34;4821643;29;20129;-74
2022/02/24 10:38:04;;;;;;;5.13;2.55;;;;;;;8.21;69.00;98254.91;4814285;29;20043;-74
2022/02/24 10:40:41;;;;;;;10.63;3.03;;;;;;;8.20;68.68;98254.09;4820660;29;20034;-75
2022/02/24 10:43:12;;;;;;;7.97;2.95;;;;;;;8.30;67.94;98256.06;4820207;29;20033;-74
2022/02/24 10:45:38;;;;;;;6.95;2.95;;;;;;;8.27;67.98;98245.97;4830563;29;20041;-74
2022/02/24 10:48:06;;;;;;;5.32;2.80;;;;;;;8.31;68.17;98244.41;4823762;29;20037;-75
2022/02/24 10:50:48;;;;;;;7.13;3.10;;;;;;;8.35;68.41;98236.72;4826309;29;20073;-74
2022/02/24 10:53:15;;;;;;;9.07;3.63;;;;;;;8.40;69.66;98228.81;4824993;29;20034;-76
2022/02/24 10:56:07;;;;;;;13.20;3.63;;;;;;;8.43;69.38;98215.81;4817753;29;20037;-75
2022/02/24 10:58:34;;;;;;;5.38;2.97;;;;;;;8.47;68.34;98211.63;4824488;29;20034;-74
2022/02/24 11:01:13;;;;;;;9.23;3.67;;;;;;;8.50;67.82;98208.44;5080608;27;20398;-72
2022/02/24 11:03:44;;;;;;;7.93;3.08;;;;;;;8.54;69.26;98200.78;5050987;28;20040;-73
2022/02/24 11:06:10;;;;;;;10.15;3.03;;;;;;;8.55;66.83;98200.53;5067733;28;20454;-73
2022/02/24 11:08:37;;;;;;;7.72;2.83;;;;;;;8.55;66.46;98200.53;5070407;28;20021;-72
2022/02/24 11:11:04;;;;;;;10.07;3.85;;;;;;;8.57;67.35;98198.41;5065058;28;20479;-72
2022/02/24 11:13:30;;;;;;;8.35;3.42;;;;;;;8.59;67.58;98191.00;5063606;28;20037;-72
2022/02/24 11:15:56;;;;;;;8.68;4.00;;;;;;;8.62;67.92;98181.72;5063528;28;20076;-73
2022/02/24 11:18:22;;;;;;;5.45;3.17;;;;;;;8.66;66.97;98183.63;5072410;28;20095;-72
2022/02/24 11:20:48;;;;;;;10.95;3.42;;;;;;;8.68;67.55;98176.19;5064925;28;20043;-72
2022/02/24 11:23:14;;;;;;;7.90;4.20;;;;;;;8.68;67.34;98165.53;5067095;28;20477;-72
2022/02/24 11:26:06;;;;;;;10.00;3.55;;;;;;;8.68;67.75;98173.53;5067562;28;20048;-72
2022/02/24 11:28:40;;;;;;;10.20;2.70;;;;;;;8.68;67.14;98154.09;5063670;28;20068;-72
2022/02/24 11:31:16;;;;;;;8.13;2.90;;;;;;;8.69;67.50;98143.19;5060064;28;20393;-73
2022/02/24 11:33:42;;;;;;;5.00;2.83;;;;;;;8.70;67.45;98149.31;5066937;28;20032;-71
2022/02/24 11:36:16;;;;;;;7.65;3.40;;;;;;;8.70;68.64;98139.47;5065740;28;20028;-72